Tunbridge, Illinois
Current Conditions -  °F | °C
As of 8:15 PM on Saturday 22 Nov 2014 (Local Time) from KAAA Reporting Station
Broken Clouds Broken Clouds  
Wind Chill: 52°   Ceiling: 11000
Heat Index: 52°   Visibility: 10mi
Dew Point: 47°   Wind: 12mph
Humidity: 84%   Direction: 180°S
Pressure: 29.9"   Gusts: NA
Location:  40.0933°N, 89.087°W
Report Text: KAAA 230215Z AUTO 18010KT 10SM SCT080 BKN110 11/09 A2990 RMK AO2 T01110085
Loading
Personal Weather Stations






























Interactive Weather Map New forecast layout! Learn more

10-Day Weather Forecast

Advertisements
Track Severe Weather on mobile